sensor_id;sensor_type;location;lat;lon;timestamp;pressure;altitude;pressure_sealevel;temperature;humidity
10940;BME280;5522;42.696;23.494;2022-08-01T00:01:47;95559.88;;;17.83;100.00
10940;BME280;5522;42.696;23.494;2022-08-01T00:04:14;95562.06;;;17.77;100.00
10940;BME280;5522;42.696;23.494;2022-08-01T00:06:41;95555.22;;;17.76;100.00
10940;BME280;5522;42.696;23.494;2022-08-01T00:09:09;95552.88;;;17.71;100.00
10940;BME280;5522;42.696;23.494;2022-08-01T00:11:36;95553.16;;;17.66;100.00
10940;BME280;5522;42.696;23.494;2022-08-01T00:14:03;95554.63;;;17.64;100.00
10940;BME280;5522;42.696;23.494;2022-08-01T00:16:30;95565.59;;;17.62;100.00
10940;BME280;5522;42.696;23.494;2022-08-01T00:18:57;95557.09;;;17.53;100.00
10940;BME280;5522;42.696;23.494;2022-08-01T00:21:24;95564.72;;;17.55;100.00
10940;BME280;5522;42.696;23.494;2022-08-01T00:23:51;95560.81;;;17.49;100.00
10940;BME280;5522;42.696;23.494;2022-08-01T00:26:19;95563.81;;;17.47;100.00
10940;BME280;5522;42.696;23.494;2022-08-01T00:28:46;95563.34;;;17.42;100.00
10940;BME280;5522;42.696;23.494;2022-08-01T00:31:13;95565.47;;;17.36;100.00
10940;BME280;5522;42.696;23.494;2022-08-01T00:33:39;95566.59;;;17.35;100.00
10940;BME280;5522;42.696;23.494;2022-08-01T00:36:06;95562.00;;;17.32;100.00
10940;BME280;5522;42.696;23.494;2022-08-01T00:38:33;95565.28;;;17.26;100.00
10940;BME280;5522;42.696;23.494;2022-08-01T00:41:00;95563.25;;;17.19;100.00
10940;BME280;5522;42.696;23.494;2022-08-01T00:43:28;95557.81;;;17.12;100.00
10940;BME280;5522;42.696;23.494;2022-08-01T00:45:55;95559.63;;;17.08;100.00
10940;BME280;5522;42.696;23.494;2022-08-01T00:48:22;95559.50;;;17.01;100.00
10940;BME280;5522;42.696;23.494;2022-08-01T00:50:49;95553.00;;;16.99;100.00
10940;BME280;5522;42.696;23.494;2022-08-01T00:53:16;95560.13;;;16.95;100.00
10940;BME280;5522;42.696;23.494;2022-08-01T00:55:43;95548.59;;;16.87;100.00
10940;BME280;5522;42.696;23.494;2022-08-01T00:58:10;95538.28;;;16.82;100.00
10940;BME280;5522;42.696;23.494;2022-08-01T01:05:58;95534.63;;;16.71;100.00
10940;BME280;5522;42.696;23.494;2022-08-01T01:08:33;95527.38;;;16.68;100.00
10940;BME280;5522;42.696;23.494;2022-08-01T01:11:07;95523.47;;;16.62;100.00
10940;BME280;5522;42.696;23.494;2022-08-01T01:13:38;95524.88;;;16.56;100.00
10940;BME280;5522;42.696;23.494;2022-08-01T01:16:11;95526.75;;;16.56;100.00
10940;BME280;5522;42.696;23.494;2022-08-01T01:18:43;95513.25;;;16.45;100.00
10940;BME280;5522;42.696;23.494;2022-08-01T01:21:32;95525.38;;;16.46;100.00
10940;BME280;5522;42.696;23.494;2022-08-01T01:24:14;95528.31;;;16.41;100.00
10940;BME280;5522;42.696;23.494;2022-08-01T01:26:52;95524.22;;;16.28;100.00
10940;BME280;5522;42.696;23.494;2022-08-01T01:29:27;95528.50;;;16.17;100.00
10940;BME280;5522;42.696;23.494;2022-08-01T01:31:58;95529.66;;;16.00;100.00
10940;BME280;5522;42.696;23.494;2022-08-01T01:34:29;95524.00;;;15.86;100.00
10940;BME280;5522;42.696;23.494;2022-08-01T01:37:00;95529.50;;;15.78;100.00
10940;BME280;5522;42.696;23.494;2022-08-01T01:39:29;95534.22;;;15.69;100.00
10940;BME280;5522;42.696;23.494;2022-08-01T01:41:57;95536.41;;;15.67;100.00
10940;BME280;5522;42.696;23.494;2022-08-01T01:44:27;95527.72;;;15.66;100.00
10940;BME280;5522;42.696;23.494;2022-08-01T01:46:55;95531.38;;;15.62;100.00
10940;BME280;5522;42.696;23.494;2022-08-01T01:49:25;95526.94;;;15.66;100.00
10940;BME280;5522;42.696;23.494;2022-08-01T01:51:54;95518.91;;;15.62;100.00
10940;BME280;5522;42.696;23.494;2022-08-01T01:54:31;95523.69;;;15.57;100.00
10940;BME280;5522;42.696;23.494;2022-08-01T01:57:00;95524.78;;;15.56;100.00
10940;BME280;5522;42.696;23.494;2022-08-01T01:59:32;95524.69;;;15.52;100.00
10940;BME280;5522;42.696;23.494;2022-08-01T02:02:02;95516.94;;;15.44;100.00
10940;BME280;5522;42.696;23.494;2022-08-01T02:04:30;95516.09;;;15.40;100.00
10940;BME280;5522;42.696;23.494;2022-08-01T02:06:59;95510.78;;;15.40;100.00
10940;BME280;5522;42.696;23.494;2022-08-01T02:09:27;95516.75;;;15.37;100.00
10940;BME280;5522;42.696;23.494;2022-08-01T02:11:55;95507.94;;;15.33;100.00
10940;BME280;5522;42.696;23.494;2022-08-01T02:14:24;95525.59;;;15.29;100.00
10940;BME280;5522;42.696;23.494;2022-08-01T02:16:54;95524.91;;;15.32;100.00
10940;BME280;5522;42.696;23.494;2022-08-01T02:19:24;95525.34;;;15.34;100.00
10940;BME280;5522;42.696;23.494;2022-08-01T02:21:55;95519.63;;;15.32;100.00
10940;BME280;5522;42.696;23.494;2022-08-01T02:24:34;95523.03;;;15.32;100.00
10940;BME280;5522;42.696;23.494;2022-08-01T02:27:06;95510.56;;;15.33;100.00
10940;BME280;5522;42.696;23.494;2022-08-01T02:29:39;95516.66;;;15.33;100.00
10940;BME280;5522;42.696;23.494;2022-08-01T02:32:11;95522.50;;;15.27;100.00
10940;BME280;5522;42.696;23.494;2022-08-01T02:34:40;95533.38;;;15.10;100.00
10940;BME280;5522;42.696;23.494;2022-08-01T02:37:09;95525.72;;;15.05;100.00
10940;BME280;5522;42.696;23.494;2022-08-01T02:39:37;95527.94;;;15.03;100.00
10940;BME280;5522;42.696;23.494;2022-08-01T02:42:06;95516.38;;;14.95;100.00
10940;BME280;5522;42.696;23.494;2022-08-01T02:44:37;95520.59;;;14.96;100.00
10940;BME280;5522;42.696;23.494;2022-08-01T02:47:06;95518.84;;;14.88;100.00
10940;BME280;5522;42.696;23.494;2022-08-01T02:49:39;95516.53;;;14.87;100.00
10940;BME280;5522;42.696;23.494;2022-08-01T02:52:12;95523.16;;;14.81;100.00
10940;BME280;5522;42.696;23.494;2022-08-01T02:54:40;95524.50;;;14.75;100.00
10940;BME280;5522;42.696;23.494;2022-08-01T02:57:08;95509.34;;;14.60;100.00
10940;BME280;5522;42.696;23.494;2022-08-01T02:59:38;95518.47;;;14.62;100.00
10940;BME280;5522;42.696;23.494;2022-08-01T03:02:07;95517.72;;;14.62;100.00
10940;BME280;5522;42.696;23.494;2022-08-01T03:04:38;95511.38;;;14.51;100.00
10940;BME280;5522;42.696;23.494;2022-08-01T03:07:07;95526.97;;;14.56;100.00
10940;BME280;5522;42.696;23.494;2022-08-01T03:09:38;95518.09;;;14.48;100.00
10940;BME280;5522;42.696;23.494;2022-08-01T03:12:14;95530.97;;;14.50;100.00
10940;BME280;5522;42.696;23.494;2022-08-01T03:14:42;95513.59;;;14.49;100.00
10940;BME280;5522;42.696;23.494;2022-08-01T03:17:11;95525.47;;;14.43;100.00
10940;BME280;5522;42.696;23.494;2022-08-01T03:19:40;95523.94;;;14.42;100.00
10940;BME280;5522;42.696;23.494;2022-08-01T03:22:11;95527.56;;;14.37;100.00
10940;BME280;5522;42.696;23.494;2022-08-01T03:24:40;95529.13;;;14.38;100.00
10940;BME280;5522;42.696;23.494;2022-08-01T03:27:08;95525.25;;;14.36;100.00
10940;BME280;5522;42.696;23.494;2022-08-01T03:29:36;95530.91;;;14.34;100.00
10940;BME280;5522;42.696;23.494;2022-08-01T03:32:05;95530.75;;;14.43;100.00
10940;BME280;5522;42.696;23.494;2022-08-01T03:34:32;95538.59;;;14.39;100.00
10940;BME280;5522;42.696;23.494;2022-08-01T03:37:05;95536.03;;;14.43;100.00
10940;BME280;5522;42.696;23.494;2022-08-01T03:39:46;95539.34;;;14.40;100.00
10940;BME280;5522;42.696;23.494;2022-08-01T03:42:16;95541.97;;;14.52;100.00
10940;BME280;5522;42.696;23.494;2022-08-01T03:44:46;95542.19;;;14.59;100.00
10940;BME280;5522;42.696;23.494;2022-08-01T03:47:16;95539.13;;;14.57;100.00
10940;BME280;5522;42.696;23.494;2022-08-01T03:49:44;95539.53;;;14.59;100.00
10940;BME280;5522;42.696;23.494;2022-08-01T03:52:14;95547.88;;;14.61;100.00
10940;BME280;5522;42.696;23.494;2022-08-01T03:54:45;95548.41;;;14.66;100.00
10940;BME280;5522;42.696;23.494;2022-08-01T03:57:13;95552.72;;;14.71;100.00
10940;BME280;5522;42.696;23.494;2022-08-01T03:59:41;95547.97;;;14.76;100.00
10940;BME280;5522;42.696;23.494;2022-08-01T04:02:09;95536.53;;;15.00;100.00
10940;BME280;5522;42.696;23.494;2022-08-01T04:04:36;95536.56;;;15.15;100.00
10940;BME280;5522;42.696;23.494;2022-08-01T04:07:03;95536.94;;;15.29;100.00
10940;BME280;5522;42.696;23.494;2022-08-01T04:09:33;95535.97;;;15.49;100.00
10940;BME280;5522;42.696;23.494;2022-08-01T04:12:01;95540.50;;;15.80;100.00
10940;BME280;5522;42.696;23.494;2022-08-01T04:14:28;95540.28;;;16.35;100.00
10940;BME280;5522;42.696;23.494;2022-08-01T04:16:55;95551.50;;;17.39;100.00
10940;BME280;5522;42.696;23.494;2022-08-01T04:19:22;95557.53;;;18.78;100.00
10940;BME280;5522;42.696;23.494;2022-08-01T04:21:49;95540.50;;;20.32;100.00
10940;BME280;5522;42.696;23.494;2022-08-01T04:24:17;95544.53;;;22.40;100.00
10940;BME280;5522;42.696;23.494;2022-08-01T04:26:47;95555.06;;;23.24;100.00
10940;BME280;5522;42.696;23.494;2022-08-01T04:29:17;95551.91;;;24.08;100.00
10940;BME280;5522;42.696;23.494;2022-08-01T04:31:48;95568.91;;;26.06;100.00
10940;BME280;5522;42.696;23.494;2022-08-01T04:34:17;95570.31;;;27.61;82.84
10940;BME280;5522;42.696;23.494;2022-08-01T04:36:47;95565.28;;;28.47;68.28
10940;BME280;5522;42.696;23.494;2022-08-01T04:39:15;95566.25;;;29.54;62.56
10940;BME280;5522;42.696;23.494;2022-08-01T04:41:43;95566.84;;;30.37;55.53
10940;BME280;5522;42.696;23.494;2022-08-01T04:44:13;95562.91;;;30.97;51.21
10940;BME280;5522;42.696;23.494;2022-08-01T04:46:40;95569.25;;;31.68;48.70
10940;BME280;5522;42.696;23.494;2022-08-01T04:49:08;95566.91;;;32.09;45.92
10940;BME280;5522;42.696;23.494;2022-08-01T04:51:49;95557.50;;;32.41;43.27
10940;BME280;5522;42.696;23.494;2022-08-01T04:54:17;95567.88;;;32.82;42.45
10940;BME280;5522;42.696;23.494;2022-08-01T04:56:44;95568.47;;;33.04;40.42
10940;BME280;5522;42.696;23.494;2022-08-01T04:59:12;95573.31;;;32.91;40.30
10940;BME280;5522;42.696;23.494;2022-08-01T05:01:57;95572.16;;;32.34;40.27
10940;BME280;5522;42.696;23.494;2022-08-01T05:04:23;95564.00;;;32.43;40.25
10940;BME280;5522;42.696;23.494;2022-08-01T05:06:50;95548.47;;;32.35;40.09
10940;BME280;5522;42.696;23.494;2022-08-01T05:09:17;95561.50;;;33.12;38.24
10940;BME280;5522;42.696;23.494;2022-08-01T05:11:44;95555.31;;;33.02;39.38
10940;BME280;5522;42.696;23.494;2022-08-01T05:14:11;95554.72;;;32.80;40.04
10940;BME280;5522;42.696;23.494;2022-08-01T05:16:39;95550.47;;;32.79;39.77
10940;BME280;5522;42.696;23.494;2022-08-01T05:19:07;95553.94;;;33.16;40.37
10940;BME280;5522;42.696;23.494;2022-08-01T05:21:34;95559.41;;;33.43;37.82
10940;BME280;5522;42.696;23.494;2022-08-01T05:24:01;95555.50;;;32.81;38.02
10940;BME280;5522;42.696;23.494;2022-08-01T05:26:28;95552.63;;;32.18;40.92
10940;BME280;5522;42.696;23.494;2022-08-01T05:28:55;95556.19;;;32.63;40.80
10940;BME280;5522;42.696;23.494;2022-08-01T05:31:21;95548.50;;;33.25;38.33
10940;BME280;5522;42.696;23.494;2022-08-01T05:33:50;95549.44;;;34.23;36.39
10940;BME280;5522;42.696;23.494;2022-08-01T05:36:16;95553.78;;;34.86;34.50
10940;BME280;5522;42.696;23.494;2022-08-01T05:38:43;95557.78;;;34.99;34.35
10940;BME280;5522;42.696;23.494;2022-08-01T05:41:10;95555.59;;;35.41;33.01
10940;BME280;5522;42.696;23.494;2022-08-01T05:43:37;95547.41;;;35.41;32.79
10940;BME280;5522;42.696;23.494;2022-08-01T05:46:04;95552.69;;;34.92;34.11
10940;BME280;5522;42.696;23.494;2022-08-01T05:48:31;95553.31;;;36.12;32.09
10940;BME280;5522;42.696;23.494;2022-08-01T05:50:59;95550.41;;;35.72;32.28
10940;BME280;5522;42.696;23.494;2022-08-01T05:53:26;95539.78;;;35.74;31.61
10940;BME280;5522;42.696;23.494;2022-08-01T05:55:53;95543.72;;;35.59;32.44
10940;BME280;5522;42.696;23.494;2022-08-01T05:58:19;95551.84;;;35.53;32.92
10940;BME280;5522;42.696;23.494;2022-08-01T06:00:46;95550.94;;;36.05;31.92
10940;BME280;5522;42.696;23.494;2022-08-01T06:03:13;95543.00;;;36.96;30.51
10940;BME280;5522;42.696;23.494;2022-08-01T06:05:40;95558.06;;;37.06;30.40
10940;BME280;5522;42.696;23.494;2022-08-01T06:08:08;95546.50;;;37.17;30.44
10940;BME280;5522;42.696;23.494;2022-08-01T06:10:36;95545.22;;;37.63;29.33
10940;BME280;5522;42.696;23.494;2022-08-01T06:13:03;95537.03;;;36.38;30.54
10940;BME280;5522;42.696;23.494;2022-08-01T06:15:30;95550.88;;;36.69;31.03
10940;BME280;5522;42.696;23.494;2022-08-01T06:17:57;95544.44;;;36.52;32.08
10940;BME280;5522;42.696;23.494;2022-08-01T06:20:24;95535.41;;;36.46;30.32
10940;BME280;5522;42.696;23.494;2022-08-01T06:22:51;95534.91;;;36.27;31.27
10940;BME280;5522;42.696;23.494;2022-08-01T06:25:19;95546.75;;;36.99;29.42
10940;BME280;5522;42.696;23.494;2022-08-01T06:27:46;95540.34;;;36.82;29.49
10940;BME280;5522;42.696;23.494;2022-08-01T06:30:13;95536.91;;;36.12;29.37
10940;BME280;5522;42.696;23.494;2022-08-01T06:32:40;95521.38;;;35.89;29.35
10940;BME280;5522;42.696;23.494;2022-08-01T06:35:07;95535.16;;;36.29;29.82
10940;BME280;5522;42.696;23.494;2022-08-01T06:37:34;95538.88;;;36.46;30.01
10940;BME280;5522;42.696;23.494;2022-08-01T06:40:02;95530.75;;;36.52;28.57
10940;BME280;5522;42.696;23.494;2022-08-01T06:42:30;95531.78;;;36.74;28.09
10940;BME280;5522;42.696;23.494;2022-08-01T06:45:01;95527.97;;;36.86;28.47
10940;BME280;5522;42.696;23.494;2022-08-01T06:47:28;95525.75;;;36.90;28.21
10940;BME280;5522;42.696;23.494;2022-08-01T06:49:54;95531.22;;;37.10;26.51
10940;BME280;5522;42.696;23.494;2022-08-01T06:52:21;95524.03;;;37.38;27.59
10940;BME280;5522;42.696;23.494;2022-08-01T06:54:48;95517.88;;;37.49;27.24
10940;BME280;5522;42.696;23.494;2022-08-01T06:57:15;95517.88;;;37.74;25.98
10940;BME280;5522;42.696;23.494;2022-08-01T06:59:43;95509.56;;;37.94;27.05
10940;BME280;5522;42.696;23.494;2022-08-01T07:02:10;95510.91;;;37.73;26.99
10940;BME280;5522;42.696;23.494;2022-08-01T07:04:37;95491.19;;;36.33;27.48
10940;BME280;5522;42.696;23.494;2022-08-01T07:07:04;95499.41;;;36.53;27.12
10940;BME280;5522;42.696;23.494;2022-08-01T07:09:31;95506.34;;;36.48;27.93
10940;BME280;5522;42.696;23.494;2022-08-01T07:11:58;95505.66;;;37.44;26.35
10940;BME280;5522;42.696;23.494;2022-08-01T07:14:25;95511.25;;;37.55;25.79
10940;BME280;5522;42.696;23.494;2022-08-01T07:16:54;95503.53;;;37.28;26.90
10940;BME280;5522;42.696;23.494;2022-08-01T07:19:21;95510.28;;;38.26;26.48
10940;BME280;5522;42.696;23.494;2022-08-01T07:21:48;95500.53;;;37.26;27.30
10940;BME280;5522;42.696;23.494;2022-08-01T07:24:16;95499.75;;;38.13;26.68
10940;BME280;5522;42.696;23.494;2022-08-01T07:26:44;95493.63;;;37.62;26.24
10940;BME280;5522;42.696;23.494;2022-08-01T07:29:11;95496.34;;;37.93;26.33
10940;BME280;5522;42.696;23.494;2022-08-01T07:31:38;95495.38;;;37.59;28.06
10940;BME280;5522;42.696;23.494;2022-08-01T07:34:07;95496.47;;;38.09;26.54
10940;BME280;5522;42.696;23.494;2022-08-01T07:36:35;95492.53;;;38.16;26.19
10940;BME280;5522;42.696;23.494;2022-08-01T07:39:01;95496.22;;;38.07;26.28
10940;BME280;5522;42.696;23.494;2022-08-01T07:41:28;95496.72;;;38.11;26.25
10940;BME280;5522;42.696;23.494;2022-08-01T07:43:55;95488.41;;;37.64;26.88
10940;BME280;5522;42.696;23.494;2022-08-01T07:46:22;95495.38;;;37.65;26.43
10940;BME280;5522;42.696;23.494;2022-08-01T07:48:49;95495.00;;;37.77;26.42
10940;BME280;5522;42.696;23.494;2022-08-01T07:51:17;95490.47;;;37.74;26.33
10940;BME280;5522;42.696;23.494;2022-08-01T07:53:44;95481.19;;;36.10;28.34
10940;BME280;5522;42.696;23.494;2022-08-01T07:56:11;95490.88;;;36.45;27.95
10940;BME280;5522;42.696;23.494;2022-08-01T07:58:37;95492.22;;;37.46;27.40
10940;BME280;5522;42.696;23.494;2022-08-01T08:01:04;95486.19;;;37.68;26.41
10940;BME280;5522;42.696;23.494;2022-08-01T08:03:31;95488.06;;;37.25;26.51
10940;BME280;5522;42.696;23.494;2022-08-01T08:05:58;95486.31;;;37.02;27.42
10940;BME280;5522;42.696;23.494;2022-08-01T08:08:26;95472.41;;;35.71;27.80
10940;BME280;5522;42.696;23.494;2022-08-01T08:10:53;95476.75;;;36.12;29.52
10940;BME280;5522;42.696;23.494;2022-08-01T08:13:20;95487.97;;;37.14;26.35
10940;BME280;5522;42.696;23.494;2022-08-01T08:15:47;95491.56;;;37.06;26.59
10940;BME280;5522;42.696;23.494;2022-08-01T08:18:14;95477.97;;;37.37;26.79
10940;BME280;5522;42.696;23.494;2022-08-01T08:20:41;95475.31;;;38.15;26.01
10940;BME280;5522;42.696;23.494;2022-08-01T08:23:08;95479.25;;;38.51;25.12
10940;BME280;5522;42.696;23.494;2022-08-01T08:25:50;95480.69;;;38.41;24.73
10940;BME280;5522;42.696;23.494;2022-08-01T08:28:17;95480.56;;;37.51;25.21
10940;BME280;5522;42.696;23.494;2022-08-01T08:30:44;95476.28;;;38.07;26.23
10940;BME280;5522;42.696;23.494;2022-08-01T08:33:10;95479.44;;;39.01;25.05
10940;BME280;5522;42.696;23.494;2022-08-01T08:35:38;95464.50;;;39.84;24.16
10940;BME280;5522;42.696;23.494;2022-08-01T08:38:05;95478.25;;;39.73;23.38
10940;BME280;5522;42.696;23.494;2022-08-01T08:40:35;95478.81;;;38.16;24.55
10940;BME280;5522;42.696;23.494;2022-08-01T08:43:04;95476.94;;;38.92;25.12
10940;BME280;5522;42.696;23.494;2022-08-01T08:45:31;95465.94;;;39.03;23.95
10940;BME280;5522;42.696;23.494;2022-08-01T08:47:59;95476.56;;;37.83;24.70
10940;BME280;5522;42.696;23.494;2022-08-01T08:50:26;95459.66;;;38.86;24.67
10940;BME280;5522;42.696;23.494;2022-08-01T08:52:54;95469.78;;;39.77;23.02
10940;BME280;5522;42.696;23.494;2022-08-01T08:55:22;95469.00;;;39.98;23.17
10940;BME280;5522;42.696;23.494;2022-08-01T08:57:49;95462.75;;;39.65;23.73
10940;BME280;5522;42.696;23.494;2022-08-01T09:00:18;95470.72;;;39.74;23.02
10940;BME280;5522;42.696;23.494;2022-08-01T09:02:47;95472.25;;;39.75;24.83
10940;BME280;5522;42.696;23.494;2022-08-01T09:05:14;95459.94;;;40.14;23.63
10940;BME280;5522;42.696;23.494;2022-08-01T09:07:42;95455.69;;;40.19;23.52
10940;BME280;5522;42.696;23.494;2022-08-01T09:10:09;95450.50;;;39.82;22.34
10940;BME280;5522;42.696;23.494;2022-08-01T09:12:36;95443.13;;;38.75;23.60
10940;BME280;5522;42.696;23.494;2022-08-01T09:15:04;95444.75;;;39.31;24.05
10940;BME280;5522;42.696;23.494;2022-08-01T09:17:40;95434.75;;;39.66;24.42
10940;BME280;5522;42.696;23.494;2022-08-01T09:20:08;95445.38;;;38.71;23.25
10940;BME280;5522;42.696;23.494;2022-08-01T09:22:49;95447.25;;;39.89;23.03
10940;BME280;5522;42.696;23.494;2022-08-01T09:25:15;95437.16;;;38.82;23.40
10940;BME280;5522;42.696;23.494;2022-08-01T09:27:42;95438.25;;;39.01;23.44
10940;BME280;5522;42.696;23.494;2022-08-01T09:30:12;95437.69;;;40.18;23.59
10940;BME280;5522;42.696;23.494;2022-08-01T09:33:04;95438.19;;;40.11;23.00
10940;BME280;5522;42.696;23.494;2022-08-01T09:35:33;95428.91;;;40.30;22.21
10940;BME280;5522;42.696;23.494;2022-08-01T09:38:15;95434.94;;;40.18;24.34
10940;BME280;5522;42.696;23.494;2022-08-01T09:40:51;95440.09;;;40.49;22.80
10940;BME280;5522;42.696;23.494;2022-08-01T09:43:20;95435.25;;;41.12;21.76
10940;BME280;5522;42.696;23.494;2022-08-01T09:45:47;95428.63;;;40.34;22.85
10940;BME280;5522;42.696;23.494;2022-08-01T09:48:16;95431.38;;;40.34;23.38
10940;BME280;5522;42.696;23.494;2022-08-01T09:50:44;95437.00;;;40.69;23.46
10940;BME280;5522;42.696;23.494;2022-08-01T09:53:12;95433.16;;;40.31;23.60
10940;BME280;5522;42.696;23.494;2022-08-01T09:55:40;95424.56;;;39.34;23.00
10940;BME280;5522;42.696;23.494;2022-08-01T09:58:07;95408.66;;;38.52;24.36
10940;BME280;5522;42.696;23.494;2022-08-01T10:00:37;95417.28;;;37.18;25.87
10940;BME280;5522;42.696;23.494;2022-08-01T10:03:21;95406.47;;;37.66;26.89
10940;BME280;5522;42.696;23.494;2022-08-01T10:05:49;95411.28;;;37.82;25.30
10940;BME280;5522;42.696;23.494;2022-08-01T10:08:16;95407.16;;;36.13;27.24
10940;BME280;5522;42.696;23.494;2022-08-01T10:11:04;95395.72;;;34.44;30.16
10940;BME280;5522;42.696;23.494;2022-08-01T10:13:33;95387.91;;;33.66;31.23
10940;BME280;5522;42.696;23.494;2022-08-01T10:16:00;95385.31;;;32.80;32.81
10940;BME280;5522;42.696;23.494;2022-08-01T10:18:31;95380.63;;;31.81;33.84
10940;BME280;5522;42.696;23.494;2022-08-01T10:20:59;95381.09;;;31.49;35.95
10940;BME280;5522;42.696;23.494;2022-08-01T10:23:26;95371.34;;;31.21;34.80
10940;BME280;5522;42.696;23.494;2022-08-01T10:25:55;95370.59;;;31.21;39.36
10940;BME280;5522;42.696;23.494;2022-08-01T10:28:22;95373.84;;;31.37;36.56
10940;BME280;5522;42.696;23.494;2022-08-01T10:30:50;95378.34;;;31.01;36.49
10940;BME280;5522;42.696;23.494;2022-08-01T10:33:17;95371.84;;;30.98;39.07
10940;BME280;5522;42.696;23.494;2022-08-01T10:35:47;95370.13;;;31.13;40.60
10940;BME280;5522;42.696;23.494;2022-08-01T10:38:14;95364.19;;;31.06;39.66
10940;BME280;5522;42.696;23.494;2022-08-01T10:40:42;95367.13;;;30.68;41.27
10940;BME280;5522;42.696;23.494;2022-08-01T10:43:09;95366.28;;;30.71;42.22
10940;BME280;5522;42.696;23.494;2022-08-01T10:45:37;95355.84;;;30.27;40.36
10940;BME280;5522;42.696;23.494;2022-08-01T10:48:09;95352.09;;;29.77;42.66
10940;BME280;5522;42.696;23.494;2022-08-01T10:50:41;95352.75;;;29.81;41.95
10940;BME280;5522;42.696;23.494;2022-08-01T10:53:15;95341.63;;;30.35;42.89
10940;BME280;5522;42.696;23.494;2022-08-01T10:55:47;95340.44;;;30.58;42.47
10940;BME280;5522;42.696;23.494;2022-08-01T10:58:20;95342.41;;;30.66;39.06
10940;BME280;5522;42.696;23.494;2022-08-01T11:00:47;95347.06;;;30.57;41.90
10940;BME280;5522;42.696;23.494;2022-08-01T11:03:14;95338.13;;;29.91;42.12
10940;BME280;5522;42.696;23.494;2022-08-01T11:05:42;95349.00;;;30.35;44.38
10940;BME280;5522;42.696;23.494;2022-08-01T11:08:22;95346.59;;;30.02;42.22
10940;BME280;5522;42.696;23.494;2022-08-01T11:10:59;95340.31;;;30.05;44.68
10940;BME280;5522;42.696;23.494;2022-08-01T11:14:00;95337.34;;;30.25;45.59
10940;BME280;5522;42.696;23.494;2022-08-01T11:16:28;95342.75;;;30.47;43.81
10940;BME280;5522;42.696;23.494;2022-08-01T11:18:55;95339.41;;;30.43;45.58
10940;BME280;5522;42.696;23.494;2022-08-01T11:21:22;95338.34;;;30.40;43.63
10940;BME280;5522;42.696;23.494;2022-08-01T11:24:10;95333.69;;;30.06;44.62
10940;BME280;5522;42.696;23.494;2022-08-01T11:26:37;95334.31;;;30.23;45.96
10940;BME280;5522;42.696;23.494;2022-08-01T11:29:17;95332.91;;;30.62;46.11
10940;BME280;5522;42.696;23.494;2022-08-01T11:31:44;95321.13;;;30.56;43.00
10940;BME280;5522;42.696;23.494;2022-08-01T11:34:11;95325.13;;;30.42;42.96
10940;BME280;5522;42.696;23.494;2022-08-01T11:36:38;95318.63;;;29.84;47.78
10940;BME280;5522;42.696;23.494;2022-08-01T11:39:19;95325.00;;;30.24;50.23
10940;BME280;5522;42.696;23.494;2022-08-01T11:41:47;95325.25;;;30.39;43.07
10940;BME280;5522;42.696;23.494;2022-08-01T11:44:19;95327.28;;;29.57;42.01
10940;BME280;5522;42.696;23.494;2022-08-01T11:46:53;95318.03;;;29.67;45.04
10940;BME280;5522;42.696;23.494;2022-08-01T11:49:25;95328.22;;;29.63;47.85
10940;BME280;5522;42.696;23.494;2022-08-01T11:52:04;95319.66;;;29.52;44.53
10940;BME280;5522;42.696;23.494;2022-08-01T11:54:34;95323.47;;;29.42;47.15
10940;BME280;5522;42.696;23.494;2022-08-01T11:57:04;95313.19;;;29.62;47.94
10940;BME280;5522;42.696;23.494;2022-08-01T11:59:37;95320.53;;;29.62;45.21
10940;BME280;5522;42.696;23.494;2022-08-01T12:02:17;95322.31;;;29.31;45.60
10940;BME280;5522;42.696;23.494;2022-08-01T12:04:51;95320.22;;;29.47;48.96
10940;BME280;5522;42.696;23.494;2022-08-01T12:07:19;95301.88;;;29.76;48.84
10940;BME280;5522;42.696;23.494;2022-08-01T12:09:47;95309.19;;;29.88;43.96
10940;BME280;5522;42.696;23.494;2022-08-01T12:12:16;95314.09;;;30.02;46.54
10940;BME280;5522;42.696;23.494;2022-08-01T12:14:45;95318.19;;;29.85;43.44
10940;BME280;5522;42.696;23.494;2022-08-01T12:17:12;95320.59;;;30.17;47.88
10940;BME280;5522;42.696;23.494;2022-08-01T12:19:40;95312.28;;;29.65;42.69
10940;BME280;5522;42.696;23.494;2022-08-01T12:22:09;95307.06;;;29.83;47.81
10940;BME280;5522;42.696;23.494;2022-08-01T12:24:36;95324.56;;;30.13;43.89
10940;BME280;5522;42.696;23.494;2022-08-01T12:27:06;95317.06;;;30.30;42.30
10940;BME280;5522;42.696;23.494;2022-08-01T12:29:34;95323.22;;;30.52;44.33
10940;BME280;5522;42.696;23.494;2022-08-01T12:32:01;95320.66;;;30.70;42.49
10940;BME280;5522;42.696;23.494;2022-08-01T12:34:29;95322.28;;;30.46;44.06
10940;BME280;5522;42.696;23.494;2022-08-01T12:37:01;95318.56;;;30.52;42.70
10940;BME280;5522;42.696;23.494;2022-08-01T12:39:31;95323.19;;;30.08;43.79
10940;BME280;5522;42.696;23.494;2022-08-01T12:41:58;95314.41;;;30.39;47.00
10940;BME280;5522;42.696;23.494;2022-08-01T12:44:28;95320.53;;;30.61;46.24
10940;BME280;5522;42.696;23.494;2022-08-01T12:46:56;95313.72;;;30.47;45.29
10940;BME280;5522;42.696;23.494;2022-08-01T12:49:24;95310.97;;;29.82;43.00
10940;BME280;5522;42.696;23.494;2022-08-01T12:51:51;95310.19;;;29.35;43.88
10940;BME280;5522;42.696;23.494;2022-08-01T12:54:18;95297.63;;;29.41;47.37
10940;BME280;5522;42.696;23.494;2022-08-01T12:56:45;95306.38;;;29.58;46.20
10940;BME280;5522;42.696;23.494;2022-08-01T12:59:22;95307.81;;;29.37;46.75
10940;BME280;5522;42.696;23.494;2022-08-01T13:01:52;95309.00;;;29.11;45.66
10940;BME280;5522;42.696;23.494;2022-08-01T13:04:19;95296.78;;;29.19;49.05
10940;BME280;5522;42.696;23.494;2022-08-01T13:06:46;95307.81;;;29.37;46.12
10940;BME280;5522;42.696;23.494;2022-08-01T13:09:14;95303.59;;;29.24;44.97
10940;BME280;5522;42.696;23.494;2022-08-01T13:11:40;95305.84;;;29.50;51.49
10940;BME280;5522;42.696;23.494;2022-08-01T13:14:08;95302.41;;;29.37;44.40